Impacts TAF Board INFO
FOR SITUATIONAL AWARENESS. NOT TO BE USED FOR FLIGHT PLANNING PURPOSES.
IDs:

KPIT - Pittsburgh Intl, PA, US

Issued at 1150 UTC 24 Feb 2018
Updated at 1402 UTC 24 Feb 2018
Potential Impact None Slight Moderate High
Time1351Z 24/15Z 24/16Z 24/17Z 24/18Z 24/19Z 24/20Z 24/21Z 24/22Z 24/23Z 25/00Z 25/01Z 25/02Z 25/03Z>>
Type OBS PRVL PRVL PRVL PRVL PRVL PRVL PRVL PRVL PRVL PRVL PRVL PRVL PRVL
VIS 8 6 6 3 3 3 3 3 3 3 3 3 3 3
CIG 55 10 10 15 15 15 15 15 15 15 15 15 15 15
Cover OVC OVC OVC OVC OVC OVC OVC OVC OVC OVC OVC OVC OVC OVC
FltCat VFR MVFR MVFR MVFR MVFR MVFR MVFR MVFR MVFR MVFR MVFR MVFR MVFR MVFR
WX -- -RA -RA SHRA SHRA SHRA SHRA SHRA SHRA SHRA SHRA SHRA SHRA SHRA
WDir 40 10 10 40 40 40 40 40 40 40 40 40 40 40
WSpd 6 9 9 6 6 6 6 6 6 6 6 6 6 6
WGst -- -- -- -- -- -- -- -- -- -- -- -- -- --

Raw TAF
KPIT 241150Z 2412/2518 01009KT 6SM -RA OVC010
  FM241700 04006KT 3SM SHRA OVC015
  FM250400 12008KT 2SM +SHRA OVC008
  FM250600 14009KT 2SM +SHRA OVC008 WS020/19035KT
  FM251400 21011G21KT 3SM -SHRA OVC025


Raw METAR
KPIT 241351Z 04006KT 8SM FEW016 BKN055 OVC130 08/07 A3017 RMK AO2 RAE50 SLP226 P0001 T00780067
KPIT 241251Z 04008KT 5SM -RA BR SCT013 BKN032 OVC075 08/06 A3017 RMK AO2 SLP224 P0003 T00780061
KPIT 241227Z 01009KT 7SM -RA SCT013 OVC080 08/06 A3016 RMK AO2 P0001 T00780061
KPIT 241151Z 33005KT 10SM -RA OVC013 08/06 A3020 RMK AO2 RAB49 SLP233 P0000 60000 70029 T00830061 10139 20083 53011

METAR Board
Radar Display
Forecast Discussion

FOR SITUATIONAL AWARENESS. NOT TO BE USED FOR FLIGHT PLANNING PURPOSES.